sensor_id;sensor_type;location;lat;lon;timestamp;temperature;humidity
11426;DHT22;5769;47.998;7.788;2023-06-10T00:01:43;20.50;92.50
11426;DHT22;5769;47.998;7.788;2023-06-10T00:04:13;20.60;92.60
11426;DHT22;5769;47.998;7.788;2023-06-10T00:06:40;20.50;92.50
11426;DHT22;5769;47.998;7.788;2023-06-10T00:09:06;20.70;92.70
11426;DHT22;5769;47.998;7.788;2023-06-10T00:11:37;20.70;92.70
11426;DHT22;5769;47.998;7.788;2023-06-10T00:14:04;20.70;92.60
11426;DHT22;5769;47.998;7.788;2023-06-10T00:16:31;20.50;92.60
11426;DHT22;5769;47.998;7.788;2023-06-10T00:18:59;20.60;92.70
11426;DHT22;5769;47.998;7.788;2023-06-10T00:21:26;20.70;92.80
11426;DHT22;5769;47.998;7.788;2023-06-10T00:23:53;20.70;92.90
11426;DHT22;5769;47.998;7.788;2023-06-10T00:26:21;20.70;92.90
11426;DHT22;5769;47.998;7.788;2023-06-10T00:28:49;20.70;92.90
11426;DHT22;5769;47.998;7.788;2023-06-10T00:31:16;20.70;93.00
11426;DHT22;5769;47.998;7.788;2023-06-10T00:33:43;20.70;93.00
11426;DHT22;5769;47.998;7.788;2023-06-10T00:36:09;20.60;93.10
11426;DHT22;5769;47.998;7.788;2023-06-10T00:38:36;20.60;93.10
11426;DHT22;5769;47.998;7.788;2023-06-10T00:41:03;20.60;93.30
11426;DHT22;5769;47.998;7.788;2023-06-10T00:43:29;20.60;93.20
11426;DHT22;5769;47.998;7.788;2023-06-10T00:45:57;20.60;93.20
11426;DHT22;5769;47.998;7.788;2023-06-10T00:48:24;20.70;93.20
11426;DHT22;5769;47.998;7.788;2023-06-10T00:50:51;20.60;93.20
11426;DHT22;5769;47.998;7.788;2023-06-10T00:53:19;20.60;93.30
11426;DHT22;5769;47.998;7.788;2023-06-10T00:55:46;20.60;93.20
11426;DHT22;5769;47.998;7.788;2023-06-10T00:58:13;20.70;93.30
11426;DHT22;5769;47.998;7.788;2023-06-10T01:00:41;20.60;93.30
11426;DHT22;5769;47.998;7.788;2023-06-10T01:03:09;20.60;93.30
11426;DHT22;5769;47.998;7.788;2023-06-10T01:05:37;20.60;93.30
11426;DHT22;5769;47.998;7.788;2023-06-10T01:08:12;20.60;93.40
11426;DHT22;5769;47.998;7.788;2023-06-10T01:10:43;20.60;93.40
11426;DHT22;5769;47.998;7.788;2023-06-10T01:13:13;20.60;93.50
11426;DHT22;5769;47.998;7.788;2023-06-10T01:15:41;20.50;93.50
11426;DHT22;5769;47.998;7.788;2023-06-10T01:18:10;20.60;93.50
11426;DHT22;5769;47.998;7.788;2023-06-10T01:20:41;20.60;93.40
11426;DHT22;5769;47.998;7.788;2023-06-10T01:23:11;20.70;93.40
11426;DHT22;5769;47.998;7.788;2023-06-10T01:25:41;20.70;93.40
11426;DHT22;5769;47.998;7.788;2023-06-10T01:28:13;20.60;93.30
11426;DHT22;5769;47.998;7.788;2023-06-10T01:30:47;20.70;93.40
11426;DHT22;5769;47.998;7.788;2023-06-10T01:33:19;20.60;93.40
11426;DHT22;5769;47.998;7.788;2023-06-10T01:35:50;20.70;93.50
11426;DHT22;5769;47.998;7.788;2023-06-10T01:38:19;20.60;93.40
11426;DHT22;5769;47.998;7.788;2023-06-10T01:40:48;20.60;93.30
11426;DHT22;5769;47.998;7.788;2023-06-10T01:43:15;20.60;93.40
11426;DHT22;5769;47.998;7.788;2023-06-10T01:45:42;20.70;93.40
11426;DHT22;5769;47.998;7.788;2023-06-10T01:48:09;20.60;93.40
11426;DHT22;5769;47.998;7.788;2023-06-10T01:50:35;20.60;93.50
11426;DHT22;5769;47.998;7.788;2023-06-10T01:53:03;20.60;93.50
11426;DHT22;5769;47.998;7.788;2023-06-10T01:55:32;20.70;93.50
11426;DHT22;5769;47.998;7.788;2023-06-10T01:57:58;20.60;93.50
11426;DHT22;5769;47.998;7.788;2023-06-10T02:00:25;20.70;93.60
11426;DHT22;5769;47.998;7.788;2023-06-10T02:02:51;20.50;93.50
11426;DHT22;5769;47.998;7.788;2023-06-10T02:05:18;20.50;93.60
11426;DHT22;5769;47.998;7.788;2023-06-10T02:07:45;20.70;93.60
11426;DHT22;5769;47.998;7.788;2023-06-10T02:10:12;20.60;93.60
11426;DHT22;5769;47.998;7.788;2023-06-10T02:12:40;20.60;93.60
11426;DHT22;5769;47.998;7.788;2023-06-10T02:15:06;20.70;93.70
11426;DHT22;5769;47.998;7.788;2023-06-10T02:17:33;20.60;93.70
11426;DHT22;5769;47.998;7.788;2023-06-10T02:20:00;20.70;93.70
11426;DHT22;5769;47.998;7.788;2023-06-10T02:22:30;20.70;93.80
11426;DHT22;5769;47.998;7.788;2023-06-10T02:24:57;20.60;93.70
11426;DHT22;5769;47.998;7.788;2023-06-10T02:27:24;20.70;93.70
11426;DHT22;5769;47.998;7.788;2023-06-10T02:29:52;20.60;93.80
11426;DHT22;5769;47.998;7.788;2023-06-10T02:32:19;20.60;93.70
11426;DHT22;5769;47.998;7.788;2023-06-10T02:34:45;20.70;93.70
11426;DHT22;5769;47.998;7.788;2023-06-10T02:37:13;20.70;93.70
11426;DHT22;5769;47.998;7.788;2023-06-10T02:39:40;20.60;93.70
11426;DHT22;5769;47.998;7.788;2023-06-10T02:42:08;20.70;93.80
11426;DHT22;5769;47.998;7.788;2023-06-10T02:44:35;20.60;93.80
11426;DHT22;5769;47.998;7.788;2023-06-10T02:47:04;20.70;93.90
11426;DHT22;5769;47.998;7.788;2023-06-10T02:49:30;20.60;93.80
11426;DHT22;5769;47.998;7.788;2023-06-10T02:51:57;20.60;93.80
11426;DHT22;5769;47.998;7.788;2023-06-10T02:54:24;20.50;93.80
11426;DHT22;5769;47.998;7.788;2023-06-10T02:56:51;20.70;93.90
11426;DHT22;5769;47.998;7.788;2023-06-10T02:59:20;20.70;93.80
11426;DHT22;5769;47.998;7.788;2023-06-10T03:01:46;20.70;93.70
11426;DHT22;5769;47.998;7.788;2023-06-10T03:04:15;20.60;93.70
11426;DHT22;5769;47.998;7.788;2023-06-10T03:06:41;20.70;93.70
11426;DHT22;5769;47.998;7.788;2023-06-10T03:09:08;20.60;93.70
11426;DHT22;5769;47.998;7.788;2023-06-10T03:11:34;20.70;93.80
11426;DHT22;5769;47.998;7.788;2023-06-10T03:14:01;20.60;93.70
11426;DHT22;5769;47.998;7.788;2023-06-10T03:16:28;20.60;93.80
11426;DHT22;5769;47.998;7.788;2023-06-10T03:18:56;20.60;93.80
11426;DHT22;5769;47.998;7.788;2023-06-10T03:21:24;20.50;93.70
11426;DHT22;5769;47.998;7.788;2023-06-10T03:23:52;20.70;93.80
11426;DHT22;5769;47.998;7.788;2023-06-10T03:26:19;20.70;93.80
11426;DHT22;5769;47.998;7.788;2023-06-10T03:28:47;20.70;93.70
11426;DHT22;5769;47.998;7.788;2023-06-10T03:31:13;20.60;93.70
11426;DHT22;5769;47.998;7.788;2023-06-10T03:33:42;20.70;93.70
11426;DHT22;5769;47.998;7.788;2023-06-10T03:36:08;20.70;93.70
11426;DHT22;5769;47.998;7.788;2023-06-10T03:38:36;20.70;93.70
11426;DHT22;5769;47.998;7.788;2023-06-10T03:41:03;20.70;93.70
11426;DHT22;5769;47.998;7.788;2023-06-10T03:43:30;20.60;93.70
11426;DHT22;5769;47.998;7.788;2023-06-10T03:45:57;20.70;93.70
11426;DHT22;5769;47.998;7.788;2023-06-10T03:48:24;20.60;93.60
11426;DHT22;5769;47.998;7.788;2023-06-10T03:50:50;20.60;93.60
11426;DHT22;5769;47.998;7.788;2023-06-10T03:53:17;20.60;93.60
11426;DHT22;5769;47.998;7.788;2023-06-10T03:55:45;20.60;93.70
11426;DHT22;5769;47.998;7.788;2023-06-10T03:58:12;20.60;93.70
11426;DHT22;5769;47.998;7.788;2023-06-10T04:00:40;20.60;93.60
11426;DHT22;5769;47.998;7.788;2023-06-10T04:03:07;20.60;93.70
11426;DHT22;5769;47.998;7.788;2023-06-10T04:05:39;20.60;93.60
11426;DHT22;5769;47.998;7.788;2023-06-10T04:08:06;20.70;93.70
11426;DHT22;5769;47.998;7.788;2023-06-10T04:10:33;20.60;93.60
11426;DHT22;5769;47.998;7.788;2023-06-10T04:13:01;20.70;93.70
11426;DHT22;5769;47.998;7.788;2023-06-10T04:15:28;20.70;93.70
11426;DHT22;5769;47.998;7.788;2023-06-10T04:17:58;20.50;93.60
11426;DHT22;5769;47.998;7.788;2023-06-10T04:20:25;20.60;93.70
11426;DHT22;5769;47.998;7.788;2023-06-10T04:22:51;20.60;93.80
11426;DHT22;5769;47.998;7.788;2023-06-10T04:25:18;20.70;94.20
11426;DHT22;5769;47.998;7.788;2023-06-10T04:27:45;20.70;93.80
11426;DHT22;5769;47.998;7.788;2023-06-10T04:30:14;20.60;93.80
11426;DHT22;5769;47.998;7.788;2023-06-10T04:32:41;20.50;93.80
11426;DHT22;5769;47.998;7.788;2023-06-10T04:35:11;20.60;93.90
11426;DHT22;5769;47.998;7.788;2023-06-10T04:37:39;20.60;93.90
11426;DHT22;5769;47.998;7.788;2023-06-10T04:40:07;20.70;94.00
11426;DHT22;5769;47.998;7.788;2023-06-10T04:42:34;20.70;93.90
11426;DHT22;5769;47.998;7.788;2023-06-10T04:45:00;20.60;93.90
11426;DHT22;5769;47.998;7.788;2023-06-10T04:47:29;20.70;93.90
11426;DHT22;5769;47.998;7.788;2023-06-10T04:49:58;20.60;93.90
11426;DHT22;5769;47.998;7.788;2023-06-10T04:52:25;20.70;94.00
11426;DHT22;5769;47.998;7.788;2023-06-10T04:54:52;20.60;93.90
11426;DHT22;5769;47.998;7.788;2023-06-10T04:57:18;20.60;93.90
11426;DHT22;5769;47.998;7.788;2023-06-10T04:59:45;20.60;94.00
11426;DHT22;5769;47.998;7.788;2023-06-10T05:02:12;20.70;94.00
11426;DHT22;5769;47.998;7.788;2023-06-10T05:04:40;20.50;93.90
11426;DHT22;5769;47.998;7.788;2023-06-10T05:07:07;20.80;94.00
11426;DHT22;5769;47.998;7.788;2023-06-10T05:09:33;20.70;94.30
11426;DHT22;5769;47.998;7.788;2023-06-10T05:12:00;20.60;94.00
11426;DHT22;5769;47.998;7.788;2023-06-10T05:14:27;20.70;94.00
11426;DHT22;5769;47.998;7.788;2023-06-10T05:16:54;20.70;93.90
11426;DHT22;5769;47.998;7.788;2023-06-10T05:19:20;20.60;94.00
11426;DHT22;5769;47.998;7.788;2023-06-10T05:21:48;20.60;94.00
11426;DHT22;5769;47.998;7.788;2023-06-10T05:24:15;20.60;94.00
11426;DHT22;5769;47.998;7.788;2023-06-10T05:26:42;20.70;94.00
11426;DHT22;5769;47.998;7.788;2023-06-10T05:29:08;20.70;94.10
11426;DHT22;5769;47.998;7.788;2023-06-10T05:31:35;20.70;94.10
11426;DHT22;5769;47.998;7.788;2023-06-10T05:34:02;20.60;94.00
11426;DHT22;5769;47.998;7.788;2023-06-10T05:36:29;20.70;94.10
11426;DHT22;5769;47.998;7.788;2023-06-10T05:38:57;20.70;94.10
11426;DHT22;5769;47.998;7.788;2023-06-10T05:41:23;20.60;94.20
11426;DHT22;5769;47.998;7.788;2023-06-10T05:43:50;20.60;94.10
11426;DHT22;5769;47.998;7.788;2023-06-10T05:46:17;20.70;94.20
11426;DHT22;5769;47.998;7.788;2023-06-10T05:48:44;20.70;94.30
11426;DHT22;5769;47.998;7.788;2023-06-10T05:51:10;20.70;94.30
11426;DHT22;5769;47.998;7.788;2023-06-10T05:53:37;20.60;94.30
11426;DHT22;5769;47.998;7.788;2023-06-10T05:56:06;20.70;94.20
11426;DHT22;5769;47.998;7.788;2023-06-10T05:58:33;20.70;94.30
11426;DHT22;5769;47.998;7.788;2023-06-10T06:01:00;20.60;94.30
11426;DHT22;5769;47.998;7.788;2023-06-10T06:03:26;20.60;94.30
11426;DHT22;5769;47.998;7.788;2023-06-10T06:05:54;20.70;94.30
11426;DHT22;5769;47.998;7.788;2023-06-10T06:08:20;20.80;94.40
11426;DHT22;5769;47.998;7.788;2023-06-10T06:10:47;20.60;94.30
11426;DHT22;5769;47.998;7.788;2023-06-10T06:13:15;20.70;94.40
11426;DHT22;5769;47.998;7.788;2023-06-10T06:15:42;20.70;94.40
11426;DHT22;5769;47.998;7.788;2023-06-10T06:18:09;20.60;94.30
11426;DHT22;5769;47.998;7.788;2023-06-10T06:20:35;20.70;94.30
11426;DHT22;5769;47.998;7.788;2023-06-10T06:23:02;20.70;94.30
11426;DHT22;5769;47.998;7.788;2023-06-10T06:25:29;20.70;94.30
11426;DHT22;5769;47.998;7.788;2023-06-10T06:27:56;20.60;94.30
11426;DHT22;5769;47.998;7.788;2023-06-10T06:30:24;20.60;94.30
11426;DHT22;5769;47.998;7.788;2023-06-10T06:32:50;20.60;94.20
11426;DHT22;5769;47.998;7.788;2023-06-10T06:35:18;20.60;94.20
11426;DHT22;5769;47.998;7.788;2023-06-10T06:37:44;20.60;94.20
11426;DHT22;5769;47.998;7.788;2023-06-10T06:40:12;20.60;94.30
11426;DHT22;5769;47.998;7.788;2023-06-10T06:42:39;20.70;94.30
11426;DHT22;5769;47.998;7.788;2023-06-10T06:45:06;20.60;94.30
11426;DHT22;5769;47.998;7.788;2023-06-10T06:47:34;20.60;94.30
11426;DHT22;5769;47.998;7.788;2023-06-10T06:50:01;20.60;94.30
11426;DHT22;5769;47.998;7.788;2023-06-10T06:52:28;20.70;94.30
11426;DHT22;5769;47.998;7.788;2023-06-10T06:54:55;20.70;94.30
11426;DHT22;5769;47.998;7.788;2023-06-10T06:57:21;20.60;94.30
11426;DHT22;5769;47.998;7.788;2023-06-10T06:59:48;20.60;94.20
11426;DHT22;5769;47.998;7.788;2023-06-10T07:02:15;20.60;94.20
11426;DHT22;5769;47.998;7.788;2023-06-10T07:04:43;20.60;94.20
11426;DHT22;5769;47.998;7.788;2023-06-10T07:07:11;20.60;94.20
11426;DHT22;5769;47.998;7.788;2023-06-10T07:09:38;20.60;94.20
11426;DHT22;5769;47.998;7.788;2023-06-10T07:12:05;20.60;94.20
11426;DHT22;5769;47.998;7.788;2023-06-10T07:14:32;20.70;94.20
11426;DHT22;5769;47.998;7.788;2023-06-10T07:16:59;20.60;94.20
11426;DHT22;5769;47.998;7.788;2023-06-10T07:19:25;20.70;94.20
11426;DHT22;5769;47.998;7.788;2023-06-10T07:21:53;20.70;94.20
11426;DHT22;5769;47.998;7.788;2023-06-10T07:24:20;20.60;94.20
11426;DHT22;5769;47.998;7.788;2023-06-10T07:26:47;20.70;94.20
11426;DHT22;5769;47.998;7.788;2023-06-10T07:29:13;20.60;94.20
11426;DHT22;5769;47.998;7.788;2023-06-10T07:31:41;20.60;94.20
11426;DHT22;5769;47.998;7.788;2023-06-10T07:34:07;20.70;94.10
11426;DHT22;5769;47.998;7.788;2023-06-10T07:36:34;20.70;94.20
11426;DHT22;5769;47.998;7.788;2023-06-10T07:39:03;20.60;94.10
11426;DHT22;5769;47.998;7.788;2023-06-10T07:41:31;20.80;94.10
11426;DHT22;5769;47.998;7.788;2023-06-10T07:43:58;20.70;94.10
11426;DHT22;5769;47.998;7.788;2023-06-10T07:46:24;20.70;94.20
11426;DHT22;5769;47.998;7.788;2023-06-10T07:48:53;20.80;94.40
11426;DHT22;5769;47.998;7.788;2023-06-10T07:51:20;20.60;94.20
11426;DHT22;5769;47.998;7.788;2023-06-10T07:53:47;20.60;94.20
11426;DHT22;5769;47.998;7.788;2023-06-10T07:56:15;20.70;94.30
11426;DHT22;5769;47.998;7.788;2023-06-10T07:58:42;20.80;94.70
11426;DHT22;5769;47.998;7.788;2023-06-10T08:01:08;20.70;94.30
11426;DHT22;5769;47.998;7.788;2023-06-10T08:03:35;20.70;94.40
11426;DHT22;5769;47.998;7.788;2023-06-10T08:06:02;20.60;94.30
11426;DHT22;5769;47.998;7.788;2023-06-10T08:08:29;20.60;94.30
11426;DHT22;5769;47.998;7.788;2023-06-10T08:10:55;20.70;94.30
11426;DHT22;5769;47.998;7.788;2023-06-10T08:13:23;20.80;94.30
11426;DHT22;5769;47.998;7.788;2023-06-10T08:15:50;20.80;94.40
11426;DHT22;5769;47.998;7.788;2023-06-10T08:18:19;20.70;94.20
11426;DHT22;5769;47.998;7.788;2023-06-10T08:20:45;20.70;94.10
11426;DHT22;5769;47.998;7.788;2023-06-10T08:23:12;20.70;94.10
11426;DHT22;5769;47.998;7.788;2023-06-10T08:25:40;20.80;94.20
11426;DHT22;5769;47.998;7.788;2023-06-10T08:28:06;20.60;94.10
11426;DHT22;5769;47.998;7.788;2023-06-10T08:30:34;20.60;94.10
11426;DHT22;5769;47.998;7.788;2023-06-10T08:33:01;20.60;94.10
11426;DHT22;5769;47.998;7.788;2023-06-10T08:35:28;20.60;94.10
11426;DHT22;5769;47.998;7.788;2023-06-10T08:37:55;20.60;94.10
11426;DHT22;5769;47.998;7.788;2023-06-10T08:40:22;20.70;94.10
11426;DHT22;5769;47.998;7.788;2023-06-10T08:42:54;20.60;94.10
11426;DHT22;5769;47.998;7.788;2023-06-10T08:45:28;20.80;94.20
11426;DHT22;5769;47.998;7.788;2023-06-10T08:47:58;20.70;94.30
11426;DHT22;5769;47.998;7.788;2023-06-10T08:50:26;20.60;94.20
11426;DHT22;5769;47.998;7.788;2023-06-10T08:52:57;20.60;94.20
11426;DHT22;5769;47.998;7.788;2023-06-10T08:55:29;20.70;94.20
11426;DHT22;5769;47.998;7.788;2023-06-10T08:57:57;20.60;94.30
11426;DHT22;5769;47.998;7.788;2023-06-10T09:00:25;20.70;94.30
11426;DHT22;5769;47.998;7.788;2023-06-10T09:02:52;20.60;94.30
11426;DHT22;5769;47.998;7.788;2023-06-10T09:05:20;20.70;94.20
11426;DHT22;5769;47.998;7.788;2023-06-10T09:07:48;20.80;94.30
11426;DHT22;5769;47.998;7.788;2023-06-10T09:10:15;20.60;94.30
11426;DHT22;5769;47.998;7.788;2023-06-10T09:12:42;20.70;94.60
11426;DHT22;5769;47.998;7.788;2023-06-10T09:15:09;20.80;94.40
11426;DHT22;5769;47.998;7.788;2023-06-10T09:17:37;20.60;94.30
11426;DHT22;5769;47.998;7.788;2023-06-10T09:20:07;20.60;94.30
11426;DHT22;5769;47.998;7.788;2023-06-10T09:22:35;20.60;94.30
11426;DHT22;5769;47.998;7.788;2023-06-10T09:25:02;20.80;94.40
11426;DHT22;5769;47.998;7.788;2023-06-10T09:27:31;20.60;94.30
11426;DHT22;5769;47.998;7.788;2023-06-10T09:29:58;20.70;94.40
11426;DHT22;5769;47.998;7.788;2023-06-10T09:32:26;20.60;94.20
11426;DHT22;5769;47.998;7.788;2023-06-10T09:34:53;20.60;94.30
11426;DHT22;5769;47.998;7.788;2023-06-10T09:37:20;20.60;94.30
11426;DHT22;5769;47.998;7.788;2023-06-10T09:40:03;20.70;94.30
11426;DHT22;5769;47.998;7.788;2023-06-10T09:42:33;20.70;94.20
11426;DHT22;5769;47.998;7.788;2023-06-10T09:45:00;20.60;94.40
11426;DHT22;5769;47.998;7.788;2023-06-10T09:47:27;20.60;94.40
11426;DHT22;5769;47.998;7.788;2023-06-10T09:49:54;20.60;94.50
11426;DHT22;5769;47.998;7.788;2023-06-10T09:52:22;20.60;94.40
11426;DHT22;5769;47.998;7.788;2023-06-10T09:54:49;20.80;94.40
11426;DHT22;5769;47.998;7.788;2023-06-10T09:57:19;20.80;94.50
11426;DHT22;5769;47.998;7.788;2023-06-10T09:59:46;20.60;94.40
11426;DHT22;5769;47.998;7.788;2023-06-10T10:02:14;20.60;94.30
11426;DHT22;5769;47.998;7.788;2023-06-10T10:04:41;20.70;94.30
11426;DHT22;5769;47.998;7.788;2023-06-10T10:07:08;20.80;94.30
11426;DHT22;5769;47.998;7.788;2023-06-10T10:09:36;20.70;94.30
11426;DHT22;5769;47.998;7.788;2023-06-10T10:12:05;20.70;94.30
11426;DHT22;5769;47.998;7.788;2023-06-10T10:14:37;20.70;94.40
11426;DHT22;5769;47.998;7.788;2023-06-10T10:17:08;20.60;94.30
11426;DHT22;5769;47.998;7.788;2023-06-10T10:19:40;20.70;94.30
11426;DHT22;5769;47.998;7.788;2023-06-10T10:22:08;20.60;94.30
11426;DHT22;5769;47.998;7.788;2023-06-10T10:24:40;20.60;94.30
11426;DHT22;5769;47.998;7.788;2023-06-10T10:27:14;20.60;94.30
11426;DHT22;5769;47.998;7.788;2023-06-10T10:29:47;20.80;94.30
11426;DHT22;5769;47.998;7.788;2023-06-10T10:32:14;20.70;94.30
11426;DHT22;5769;47.998;7.788;2023-06-10T10:34:48;20.70;94.20
11426;DHT22;5769;47.998;7.788;2023-06-10T10:37:17;20.60;94.30
11426;DHT22;5769;47.998;7.788;2023-06-10T10:39:45;20.80;94.40
11426;DHT22;5769;47.998;7.788;2023-06-10T10:42:12;20.60;94.30
11426;DHT22;5769;47.998;7.788;2023-06-10T10:44:40;20.60;94.30
11426;DHT22;5769;47.998;7.788;2023-06-10T10:47:09;20.60;94.30
11426;DHT22;5769;47.998;7.788;2023-06-10T10:49:37;20.60;94.30
11426;DHT22;5769;47.998;7.788;2023-06-10T10:52:04;20.60;94.20
11426;DHT22;5769;47.998;7.788;2023-06-10T10:54:37;20.70;94.30
11426;DHT22;5769;47.998;7.788;2023-06-10T10:57:11;20.60;94.30
11426;DHT22;5769;47.998;7.788;2023-06-10T10:59:45;20.60;94.40
11426;DHT22;5769;47.998;7.788;2023-06-10T11:02:17;20.60;94.30
11426;DHT22;5769;47.998;7.788;2023-06-10T11:04:48;20.70;94.30
11426;DHT22;5769;47.998;7.788;2023-06-10T11:07:15;20.70;94.30
11426;DHT22;5769;47.998;7.788;2023-06-10T11:09:58;20.60;94.30
11426;DHT22;5769;47.998;7.788;2023-06-10T11:12:25;20.70;94.30
11426;DHT22;5769;47.998;7.788;2023-06-10T11:14:54;20.60;94.30
11426;DHT22;5769;47.998;7.788;2023-06-10T11:17:22;20.70;94.30
11426;DHT22;5769;47.998;7.788;2023-06-10T11:19:49;20.60;94.20
11426;DHT22;5769;47.998;7.788;2023-06-10T11:22:17;20.80;94.30
11426;DHT22;5769;47.998;7.788;2023-06-10T11:24:47;20.60;94.30
11426;DHT22;5769;47.998;7.788;2023-06-10T11:27:15;20.60;94.30
11426;DHT22;5769;47.998;7.788;2023-06-10T11:29:56;20.80;94.30
11426;DHT22;5769;47.998;7.788;2023-06-10T11:32:26;20.60;94.20
11426;DHT22;5769;47.998;7.788;2023-06-10T11:34:56;20.80;94.20
11426;DHT22;5769;47.998;7.788;2023-06-10T11:37:22;20.70;94.30
11426;DHT22;5769;47.998;7.788;2023-06-10T11:39:51;20.60;94.10
11426;DHT22;5769;47.998;7.788;2023-06-10T11:42:19;20.70;94.10
11426;DHT22;5769;47.998;7.788;2023-06-10T11:44:49;20.80;94.50
11426;DHT22;5769;47.998;7.788;2023-06-10T11:47:16;20.70;94.00
11426;DHT22;5769;47.998;7.788;2023-06-10T11:49:44;20.70;94.00
11426;DHT22;5769;47.998;7.788;2023-06-10T11:52:11;20.60;94.00
11426;DHT22;5769;47.998;7.788;2023-06-10T11:54:38;20.70;94.00
11426;DHT22;5769;47.998;7.788;2023-06-10T11:57:05;20.70;94.00
11426;DHT22;5769;47.998;7.788;2023-06-10T11:59:34;20.60;94.00
11426;DHT22;5769;47.998;7.788;2023-06-10T12:02:00;20.60;93.90
11426;DHT22;5769;47.998;7.788;2023-06-10T12:04:27;20.70;93.90
11426;DHT22;5769;47.998;7.788;2023-06-10T12:06:55;20.60;93.90
11426;DHT22;5769;47.998;7.788;2023-06-10T12:09:23;20.70;93.90
11426;DHT22;5769;47.998;7.788;2023-06-10T12:11:51;20.60;93.90
11426;DHT22;5769;47.998;7.788;2023-06-10T12:14:52;20.60;93.90
11426;DHT22;5769;47.998;7.788;2023-06-10T12:17:21;20.60;93.90
11426;DHT22;5769;47.998;7.788;2023-06-10T12:19:48;20.60;93.80
11426;DHT22;5769;47.998;7.788;2023-06-10T12:22:16;20.60;93.80
11426;DHT22;5769;47.998;7.788;2023-06-10T12:24:45;20.70;93.90
11426;DHT22;5769;47.998;7.788;2023-06-10T12:27:12;20.70;93.90
11426;DHT22;5769;47.998;7.788;2023-06-10T12:29:39;20.60;93.80
11426;DHT22;5769;47.998;7.788;2023-06-10T12:32:06;20.70;93.80
11426;DHT22;5769;47.998;7.788;2023-06-10T12:34:37;20.80;93.90
11426;DHT22;5769;47.998;7.788;2023-06-10T12:37:06;20.70;93.80
11426;DHT22;5769;47.998;7.788;2023-06-10T12:39:34;20.80;93.80
11426;DHT22;5769;47.998;7.788;2023-06-10T12:42:01;20.60;93.80
11426;DHT22;5769;47.998;7.788;2023-06-10T12:44:29;20.70;93.80
11426;DHT22;5769;47.998;7.788;2023-06-10T12:46:56;20.60;93.80
11426;DHT22;5769;47.998;7.788;2023-06-10T12:49:23;20.80;93.80
11426;DHT22;5769;47.998;7.788;2023-06-10T12:51:50;20.60;93.70
11426;DHT22;5769;47.998;7.788;2023-06-10T12:54:17;20.70;93.70
11426;DHT22;5769;47.998;7.788;2023-06-10T12:56:45;20.60;93.70
11426;DHT22;5769;47.998;7.788;2023-06-10T12:59:12;20.60;93.70
11426;DHT22;5769;47.998;7.788;2023-06-10T13:01:38;20.80;93.90
11426;DHT22;5769;47.998;7.788;2023-06-10T13:04:05;20.60;93.80
11426;DHT22;5769;47.998;7.788;2023-06-10T13:06:33;20.60;93.70
11426;DHT22;5769;47.998;7.788;2023-06-10T13:09:02;20.70;93.80
11426;DHT22;5769;47.998;7.788;2023-06-10T13:11:29;20.60;93.70
11426;DHT22;5769;47.998;7.788;2023-06-10T13:13:57;20.70;93.70
11426;DHT22;5769;47.998;7.788;2023-06-10T13:16:24;20.70;93.70
11426;DHT22;5769;47.998;7.788;2023-06-10T13:18:52;20.60;93.70
11426;DHT22;5769;47.998;7.788;2023-06-10T13:21:18;20.70;93.60
11426;DHT22;5769;47.998;7.788;2023-06-10T13:23:45;20.60;93.60
11426;DHT22;5769;47.998;7.788;2023-06-10T13:26:13;20.70;93.60
11426;DHT22;5769;47.998;7.788;2023-06-10T13:28:40;20.60;93.50
11426;DHT22;5769;47.998;7.788;2023-06-10T13:31:08;20.80;93.70
11426;DHT22;5769;47.998;7.788;2023-06-10T13:33:34;20.60;93.50
11426;DHT22;5769;47.998;7.788;2023-06-10T13:36:01;20.80;93.50
11426;DHT22;5769;47.998;7.788;2023-06-10T13:38:28;20.70;93.50
11426;DHT22;5769;47.998;7.788;2023-06-10T13:40:54;20.60;93.50
11426;DHT22;5769;47.998;7.788;2023-06-10T13:43:21;20.80;93.50
11426;DHT22;5769;47.998;7.788;2023-06-10T13:45:48;20.70;93.50
11426;DHT22;5769;47.998;7.788;2023-06-10T13:48:16;20.60;93.50
11426;DHT22;5769;47.998;7.788;2023-06-10T13:50:42;20.60;93.50
11426;DHT22;5769;47.998;7.788;2023-06-10T13:53:11;20.60;93.40
11426;DHT22;5769;47.998;7.788;2023-06-10T13:55:38;20.70;93.50
11426;DHT22;5769;47.998;7.788;2023-06-10T13:58:04;20.60;93.40
11426;DHT22;5769;47.998;7.788;2023-06-10T14:00:31;20.70;93.40
11426;DHT22;5769;47.998;7.788;2023-06-10T14:02:58;20.70;93.40
11426;DHT22;5769;47.998;7.788;2023-06-10T14:05:26;20.60;93.30
11426;DHT22;5769;47.998;7.788;2023-06-10T14:07:53;20.60;93.30
11426;DHT22;5769;47.998;7.788;2023-06-10T14:10:20;20.60;93.30
11426;DHT22;5769;47.998;7.788;2023-06-10T14:12:46;20.70;93.30
11426;DHT22;5769;47.998;7.788;2023-06-10T14:15:13;20.70;93.30
11426;DHT22;5769;47.998;7.788;2023-06-10T14:17:40;20.70;93.30
11426;DHT22;5769;47.998;7.788;2023-06-10T14:20:07;20.80;93.30
11426;DHT22;5769;47.998;7.788;2023-06-10T14:22:35;20.60;93.30
11426;DHT22;5769;47.998;7.788;2023-06-10T14:25:03;20.70;93.30
11426;DHT22;5769;47.998;7.788;2023-06-10T14:27:29;20.60;93.30
11426;DHT22;5769;47.998;7.788;2023-06-10T14:29:56;20.70;93.40
11426;DHT22;5769;47.998;7.788;2023-06-10T14:32:23;20.60;93.30
11426;DHT22;5769;47.998;7.788;2023-06-10T14:34:49;20.60;93.30
11426;DHT22;5769;47.998;7.788;2023-06-10T14:37:16;20.70;93.30
11426;DHT22;5769;47.998;7.788;2023-06-10T14:39:44;20.70;93.30
11426;DHT22;5769;47.998;7.788;2023-06-10T14:42:11;20.80;93.30
11426;DHT22;5769;47.998;7.788;2023-06-10T14:44:38;20.60;93.30
11426;DHT22;5769;47.998;7.788;2023-06-10T14:47:05;20.80;93.30
11426;DHT22;5769;47.998;7.788;2023-06-10T14:49:31;20.70;93.30
11426;DHT22;5769;47.998;7.788;2023-06-10T14:51:58;20.70;93.20
11426;DHT22;5769;47.998;7.788;2023-06-10T14:54:25;20.70;93.20
11426;DHT22;5769;47.998;7.788;2023-06-10T14:56:53;20.60;93.20
11426;DHT22;5769;47.998;7.788;2023-06-10T14:59:19;20.60;93.10
11426;DHT22;5769;47.998;7.788;2023-06-10T15:01:46;20.60;93.10
11426;DHT22;5769;47.998;7.788;2023-06-10T15:04:13;20.70;93.20
11426;DHT22;5769;47.998;7.788;2023-06-10T15:06:40;20.80;93.20
11426;DHT22;5769;47.998;7.788;2023-06-10T15:09:08;20.70;93.20
11426;DHT22;5769;47.998;7.788;2023-06-10T15:11:34;20.70;93.10
11426;DHT22;5769;47.998;7.788;2023-06-10T15:14:04;20.80;93.20
11426;DHT22;5769;47.998;7.788;2023-06-10T15:16:31;20.70;93.10
11426;DHT22;5769;47.998;7.788;2023-06-10T15:18:58;20.80;93.20
11426;DHT22;5769;47.998;7.788;2023-06-10T15:21:25;20.70;93.10
11426;DHT22;5769;47.998;7.788;2023-06-10T15:23:51;20.70;93.10
11426;DHT22;5769;47.998;7.788;2023-06-10T15:26:18;20.70;93.10
11426;DHT22;5769;47.998;7.788;2023-06-10T15:28:45;20.70;93.20
11426;DHT22;5769;47.998;7.788;2023-06-10T15:31:13;20.80;93.10
11426;DHT22;5769;47.998;7.788;2023-06-10T15:33:40;20.70;93.20
11426;DHT22;5769;47.998;7.788;2023-06-10T15:36:07;20.80;93.20
11426;DHT22;5769;47.998;7.788;2023-06-10T15:38:33;20.70;93.20
11426;DHT22;5769;47.998;7.788;2023-06-10T15:41:00;20.80;93.10
11426;DHT22;5769;47.998;7.788;2023-06-10T15:43:27;20.70;93.10
11426;DHT22;5769;47.998;7.788;2023-06-10T15:45:53;20.70;93.00
11426;DHT22;5769;47.998;7.788;2023-06-10T15:48:21;20.80;93.00